Pasadena 2N

39° 08' 31"N, 76° 30' 27"W, Elevation 43 ft.
Eastern Time

Hourly observations for the last 72 hours

Date Time Temperature (°F) Humi-
dity

(%)
Wind
(mph)
Pressure Rain (in) Sun
(W/m2)
ET
(in)
Air Dew 6 Hour 1 Hr 3 Hr 6 Hr Day
Alt
(in)
Sea
Level

(mb)
Max Min
28 09:00 52.9 51.5 95 SE 2 G 8 30.00 1016.1 0.24 0.66 91 0.001
28 08:00 53.0 51.3 55.1 52.9 94 E 0 G 6 30.03 1017.0 0.10 0.31 0.40 0.42 0 0.001
28 07:00 53.0 51.3 94 Calm 30.01 1016.4 0.13 0.32 0 0.001
28 06:00 53.3 51.3 93 NNE 0 G 1 30.04 1017.2 0.08 0.19 0 0.001
28 05:00 53.4 51.4 93 SE 0 G 1 30.02 1016.6 0.03 0.09 0.11 0 0.001
28 04:00 53.5 51.2 92 E 0 G 3 29.98 1015.2 0.04 0.08 0 0.001
28 03:00 54.1 51.5 91 ESE 2 G 2 29.99 1015.5 0.02 0.04 0 0.001
28 02:00 55.1 51.6 58.0 55.1 88 ESE 0 G 2 30.01 1016.5 0.02 0.02 0.02 0.02 0 0.001
28 01:00 56.3 51.2 83 ESE 0 G 2 30.02 1016.6 0.00 0 0.000
28 00:00 57.1 51.3 81 Calm 30.02 1016.5 0.00 0 0.050
27 23:00 57.0 51.6 82 SSE 2 G 5 30.00 1015.9 0.00 0 0.049
27 22:00 57.5 51.0 79 SE 0 G 1 29.99 1015.7 0.00 0 0.048
27 21:00 57.7 50.9 78 SSE 2 G 5 29.99 1015.4 0.00 0 0.047
27 20:00 57.6 50.4 64.7 57.5 77 SSE 0 G 3 29.96 1014.7 0.00 0 0.047
27 19:00 61.0 51.9 72 SSE 1 G 5 29.92 1013.4 0.00 35 0.046
27 18:00 64.0 51.6 64 ENE 1 G 2 29.91 1013.0 0.00 74 0.042
27 17:00 64.3 51.9 64 E 2 G 5 29.90 1012.4 0.00 213 0.035
27 16:00 62.8 51.7 67 E 4 G 8 29.89 1012.1 0.00 162 0.030
27 15:00 63.7 52.1 66 WNW 1 G 4 29.87 1011.7 0.00 155 0.026
27 14:00 63.6 52.0 63.9 47.7 66 W 2 G 6 29.88 1012.0 0.00 165 0.020
27 13:00 62.5 52.2 69 W 2 G 5 29.89 1012.3 0.00 274 0.014
27 12:00 60.1 51.4 73 W 1 G 4 29.87 1011.5 0.00 302 0.009
27 11:00 57.9 50.7 77 W 1 G 4 29.86 1011.2 0.00 262 0.005
27 10:00 55.3 49.9 82 NW 1 G 6 29.83 1010.3 0.00 185 0.002
27 09:00 51.6 48.8 90 W 0 G 3 29.84 1010.5 0.00 105 0.001
27 08:00 47.7 45.5 50.2 47.4 92 Calm 29.84 1010.5 0.00 53 0.001
27 07:00 48.3 45.8 91 Calm 29.78 1008.6 0.00 0 0.001
27 06:00 49.6 47.1 91 Calm 29.78 1008.6 0.00 0 0.001
27 05:00 49.7 46.9 90 SE 0 G 1 29.78 1008.4 0.00 0 0.001
27 04:00 50.1 47.0 89 Calm 29.78 1008.4 0.00 0 0.001
27 03:00 49.9 46.5 88 SE 0 G 3 29.79 1008.9 0.00 0 0.001
27 02:00 50.1 46.1 52.2 49.5 86 SSE 0 G 1 29.81 1009.5 0.00 0 0.001
27 01:00 50.5 45.5 83 SSE 0 G 5 29.81 1009.7 0.00 0 0.000
27 00:00 50.4 45.1 82 S 0 G 2 29.83 1010.1 0.00 0 0.097
26 23:00 49.7 44.1 81 SSE 1 G 5 29.83 1010.2 0.00 0 0.096
26 22:00 52.1 45.1 77 SSE 3 G 10 29.85 1010.8 0.00 0 0.095
26 21:00 51.7 45.7 80 S 5 G 10 29.86 1011.3 0.00 0 0.094
26 20:00 51.0 45.1 59.5 51.0 80 SSE 3 G 8 29.87 1011.6 0.00 0 0.093
26 19:00 52.8 45.5 76 SSE 4 G 12 29.89 1012.1 0.00 19 0.091
26 18:00 56.4 47.1 71 SE 4 G 9 29.89 1012.3 0.00 40 0.085
26 17:00 59.3 48.0 66 SE 3 G 11 29.91 1012.7 0.00 448 0.073
26 16:00 59.0 47.3 65 SSE 6 G 11 29.93 1013.5 0.00 622 0.058
26 15:00 58.4 46.3 64 S 5 G 15 29.95 1014.4 0.00 744 0.041
26 14:00 58.7 47.4 58.7 36.8 66 S 4 G 12 30.00 1016.1 0.00 733 0.025
26 13:00 53.6 44.8 72 ESE 4 G 9 30.05 1017.5 0.00 308 0.015
26 12:00 53.1 44.7 73 SSE 5 G 12 30.07 1018.4 0.00 715 0.005
26 11:00 50.1 43.2 77 WSW 2 G 6 30.09 1019.0 0.00 253 0.001
26 10:00 46.7 41.8 83 W 1 G 4 30.09 1018.9 0.00 144 0.000
26 09:00 42.6 41.3 95 Calm 30.08 1018.7 0.00 35 0.000
26 08:00 36.8 35.2 38.8 34.0 94 Calm 30.07 1018.4 0.00 25 0.000
26 07:00 34.9 33.4 94 Calm 30.08 1018.6 0.00 0 0.000
26 06:00 34.2 32.4 93 Calm 30.08 1018.5 0.00 0 0.000
26 05:00 35.0 32.9 92 Calm 30.05 1017.7 0.00 0 0.000
26 04:00 36.5 34.4 92 Calm 30.05 1017.7 0.00 0 0.000
26 03:00 38.7 36.6 92 Calm 30.06 1017.9 0.00 0 0.000
26 02:00 38.5 35.8 46.1 38.4 90 Calm 30.07 1018.2 0.00 0 0.000
26 01:00 41.3 37.7 87 Calm 30.07 1018.3 0.00 0 0.000
26 00:00 44.8 40.0 83 NE 0 G 3 30.06 1018.0 0.37 0 0.022
25 23:00 45.4 40.5 83 NNE 0 G 3 30.07 1018.2 0.37 0 0.022
25 22:00 45.8 40.9 83 NNE 1 G 8 30.06 1017.9 0.37 0 0.022
25 21:00 46.0 41.7 85 Calm 30.04 1017.3 0.37 0 0.022
25 20:00 46.0 42.1 49.0 45.9 86 NNE 1 G 6 30.01 1016.3 0.01 0.37 0 0.022
25 19:00 46.2 42.5 87 ENE 5 G 11 29.98 1015.4 0.37 0 0.022
25 18:00 46.5 44.0 91 NE 1 G 10 29.95 1014.4 0.37 16 0.021
25 17:00 47.7 44.3 88 NE 4 G 12 29.93 1013.6 0.01 0.37 39 0.020
25 16:00 48.8 45.4 88 NE 2 G 12 29.92 1013.3 0.01 0.37 83 0.017
25 15:00 48.6 46.1 91 NNE 5 G 13 29.92 1013.1 0.36 146 0.013
25 14:00 47.2 45.3 47.4 43.8 93 NE 5 G 11 29.93 1013.5 0.01 0.17 0.27 0.36 192 0.010
25 13:00 45.9 44.3 94 NNE 2 G 13 29.94 1014.0 0.09 0.35 125 0.009
25 12:00 45.4 43.5 93 N 3 G 11 29.94 1014.0 0.07 0.26 97 0.008
25 11:00 45.1 42.9 92 N 1 G 11 29.93 1013.6 0.01 0.10 0.19 37 0.007
25 10:00 44.7 42.8 93 NE 4 G 12 29.92 1013.1 0.01 0.18 63 0.006

Data generated by WxSolution Version 1.9.1.8, Build 2020.02.16.